Latest Weather Observations for Dum In Mirrie

IDD60901

Issued at 8:31 pm CST Friday 22 November 2019 (issued every 10 minutes, with the page automatically refreshed every 10 minutes)

About weather observations | Map of Darwin area stations | Latest observations for Darwin area | Other Formats
Station Details ID: 014277 Name: DUM IN MIRRIE AIRSTRIP Lat: -12.63 Lon: 130.37 Height: 3.5 m
Data from the previous 72 hours. | See also: Recent months at Dum In Mirrie
Date/Time
CST
Temp
°C
App
Temp
°C
Dew
Point
°C
Rel
Hum
%
Delta-T
°C
Wind Press
QNH
hPa
Press
MSL
hPa
Rain since
9am
mm
Dir  Spd
km/h
Gust
km/h
Spd
kts
Gust
kts
22/08:30pm 29.3 34.7 25.1 78 3.0 WNW 6 13 3 7 1009.2 1009.2 0.0
22/08:00pm 29.4 34.5 24.9 77 3.2 WNW 7 15 4 8 1008.9 1008.9 0.0
22/07:30pm 29.6 34.7 24.9 76 3.3 WNW 7 15 4 8 1008.4 1008.4 0.0
22/07:00pm 29.7 34.7 24.8 75 3.4 WNW 7 15 4 8 1008.3 1008.3 0.0
22/06:30pm 30.1 35.1 25.4 76 3.3 WNW 9 15 5 8 1008.0 1008.0 0.0
22/06:00pm 31.1 36.3 25.7 73 3.8 WNW 9 20 5 11 1007.8 1007.8 0.0
22/05:30pm 31.1 35.6 25.2 71 4.2 W 11 19 6 10 1008.1 1008.1 0.0
22/05:00pm 31.6 36.5 23.7 63 5.5 SW 4 19 2 10 1008.5 1008.5 0.0
22/04:30pm 31.3 35.9 24.2 66 5.0 W 7 13 4 7 1009.1 1009.1 0.0
22/04:00pm 31.0 34.8 23.4 64 5.2 WSW 9 19 5 10 1009.2 1009.2 0.0
22/03:30pm 32.4 37.5 25.5 67 4.9 WSW 9 22 5 12 1009.5 1009.5 0.0
22/03:00pm 32.2 37.5 25.8 69 4.6 WNW 9 19 5 10 1009.6 1009.6 0.0
22/02:30pm 31.9 35.9 25.0 67 4.9 NW 13 20 7 11 1009.6 1009.6 0.0
22/02:00pm 32.8 38.1 25.9 67 4.9 NW 9 19 5 10 1009.8 1009.8 0.0
22/01:30pm 31.4 35.8 25.0 69 4.5 NNW 11 20 6 11 1010.3 1010.3 0.0
22/01:00pm 32.2 37.1 25.8 69 4.6 NNW 11 24 6 13 1010.5 1010.5 0.0
22/12:30pm 32.6 37.7 26.2 69 4.6 N 11 22 6 12 1010.8 1010.8 0.0
22/12:00pm 32.5 37.6 26.1 69 4.6 N 11 20 6 11 1011.0 1011.0 0.0
22/11:30am 31.7 36.3 26.5 74 3.7 N 15 20 8 11 1011.1 1011.1 0.0
22/11:00am 30.3 35.3 25.4 75 3.5 NNW 9 15 5 8 1011.3 1011.3 0.0
22/10:30am 31.9 37.1 25.7 69 4.4 NW 9 17 5 9 1011.3 1011.3 0.0
22/10:00am 32.0 37.3 25.3 67 4.7 NW 7 19 4 10 1011.4 1011.4 0.0
22/09:30am 31.7 37.7 25.5 69 4.4 WNW 4 11 2 6 1011.4 1011.4 0.0
22/09:00am 30.9 35.9 24.5 68 4.5 WNW 6 9 3 5 1011.5 1011.5 0.0
22/08:30am 31.7 37.7 25.5 69 4.4 NW 4 7 2 4 1011.1 1011.1 0.0
22/08:00am 30.3 36.7 24.9 73 3.8 CALM 0 4 0 2 1011.2 1011.2 0.0
22/07:30am 29.9 36.1 25.2 76 3.3 NW 2 6 1 3 1010.6 1010.6 0.0
22/07:00am 28.5 35.4 25.7 85 2.0 CALM 0 4 0 2 1010.1 1010.1 0.0
22/06:30am 28.0 34.2 25.2 85 2.0 NNW 2 6 1 3 1009.6 1009.6 0.0
22/06:00am 28.3 34.1 25.1 83 2.2 WNW 4 7 2 4 1009.0 1009.0 0.0
22/05:30am 28.6 34.6 24.8 80 2.7 WNW 2 6 1 3 1008.7 1008.7 0.0
22/05:00am 28.8 35.0 25.2 81 2.5 WNW 2 7 1 4 1008.3 1008.3 0.0
22/04:30am 28.9 34.4 25.3 81 2.5 WNW 6 11 3 6 1008.1 1008.1 0.0
22/04:00am 28.9 34.4 25.3 81 2.5 W 6 13 3 7 1007.9 1007.9 0.0
22/03:30am 28.9 34.4 25.3 81 2.5 WNW 6 9 3 5 1007.8 1007.8 0.0
22/03:00am 28.8 34.4 25.4 82 2.4 NW 6 7 3 4 1007.8 1007.8 0.0
22/02:30am 28.6 34.5 25.4 83 2.3 NW 4 9 2 5 1007.8 1007.8 0.0
22/02:00am 28.5 34.4 25.3 83 2.2 NW 4 9 2 5 1007.8 1007.8 0.0
22/01:30am 28.8 34.4 25.4 82 2.4 NW 6 11 3 6 1008.0 1008.0 0.0
22/01:00am 28.9 34.4 25.3 81 2.5 NNW 6 11 3 6 1008.3 1008.3 0.0
22/12:30am 28.9 34.3 25.5 82 2.4 NNW 7 13 4 7 1008.5 1008.5 0.0
22/12:00am 29.1 34.2 25.5 81 2.5 NW 9 17 5 9 1008.6 1008.6 0.0
 
Date/Time
CST
Temp
°C
App
Temp
°C
Dew
Point
°C
Rel
Hum
%
Delta-T
°C
Wind Press
QNH
hPa
Press
MSL
hPa
Rain since
9am
mm
Dir  Spd
km/h
Gust
km/h
Spd
kts
Gust
kts
21/11:30pm 29.3 34.2 25.3 79 2.8 NW 9 17 5 9 1008.8 1008.8 0.0
21/11:00pm 29.5 34.4 25.3 78 3.0 WNW 9 19 5 10 1009.0 1009.0 0.0
21/10:30pm 29.5 34.2 25.0 77 3.2 NW 9 15 5 8 1009.0 1009.0 0.0
21/10:00pm 29.5 34.4 25.3 78 3.0 NW 9 15 5 8 1009.0 1009.0 0.0
21/09:30pm 29.5 34.8 25.3 78 3.0 NW 7 17 4 9 1009.1 1009.1 0.0
21/09:00pm 29.6 34.7 24.9 76 3.3 NW 7 13 4 7 1009.1 1009.1 0.0
21/08:30pm 29.6 34.5 24.7 75 3.4 WNW 7 17 4 9 1008.7 1008.7 0.0
21/08:00pm 29.7 34.4 25.0 76 3.3 WNW 9 17 5 9 1008.4 1008.4 0.0
21/07:30pm 29.8 34.9 24.9 75 3.4 WNW 7 15 4 8 1008.1 1008.1 0.0
21/07:00pm 30.0 34.9 24.6 73 3.8 WNW 7 15 4 8 1007.7 1007.7 0.0
21/06:30pm 30.5 35.1 24.2 69 4.4 WNW 7 15 4 8 1007.8 1007.8 0.0
21/06:00pm 31.5 36.4 24.6 67 4.8 W 7 13 4 7 1007.4 1007.4 0.0
21/05:30pm 31.7 36.9 25.1 68 4.7 WNW 7 17 4 9 1007.3 1007.3 0.0
21/05:00pm 31.8 36.7 25.2 68 4.7 W 9 17 5 9 1007.1 1007.1 0.0
21/04:30pm 32.4 37.7 25.2 66 5.1 WNW 7 17 4 9 1006.8 1006.8 0.0
21/04:00pm 32.6 37.6 25.4 66 5.1 WNW 9 17 5 9 1007.1 1007.1 0.0
21/03:30pm 32.3 37.3 25.4 67 4.9 WNW 9 17 5 9 1007.3 1007.3 0.0
21/03:00pm 33.0 38.1 25.5 64 5.3 WNW 9 15 5 8 1007.6 1007.6 0.0
21/02:30pm 32.5 37.4 25.3 66 5.1 WNW 9 20 5 11 1008.0 1008.0 0.0
21/02:00pm 32.9 37.9 25.4 64 5.3 WNW 9 17 5 9 1008.4 1008.4 0.0
21/01:30pm 32.6 37.8 25.7 67 4.9 WNW 9 17 5 9 1008.9 1008.9 0.0
21/01:00pm 32.5 37.3 25.1 65 5.2 W 9 19 5 10 1009.2 1009.2 0.0
21/12:30pm 33.0 38.8 26.0 66 5.0 W 7 13 4 7 1009.5 1009.5 0.0
21/12:00pm 32.4 37.8 26.0 69 4.6 WSW 9 17 5 9 1010.1 1010.1 0.0
21/11:30am 32.2 37.5 25.8 69 4.6 W 9 15 5 8 1010.3 1010.3 0.0
21/11:00am 32.1 37.1 25.4 67 4.8 WSW 9 17 5 9 1010.5 1010.5 0.0
21/10:30am 31.8 36.5 24.9 67 4.9 WSW 9 13 5 7 1010.8 1010.8 0.0
21/10:00am 32.0 37.4 25.1 67 4.9 WSW 6 11 3 6 1010.9 1010.9 0.0
21/09:30am 31.2 36.2 24.8 69 4.5 WSW 7 13 4 7 1011.1 1011.1 0.0
21/09:00am 31.5 36.9 25.4 70 4.3 WSW 7 11 4 6 1010.9 1010.9 33.4
21/08:30am 30.4 35.8 24.5 70 4.1 W 4 6 2 3 1010.7 1010.7 33.2
21/08:00am 30.5 35.9 25.1 73 3.8 WNW 6 9 3 5 1010.5 1010.5 33.2
21/07:30am 29.8 35.7 25.3 77 3.2 W 4 11 2 6 1010.1 1010.1 33.2
21/07:00am 29.1 35.2 25.7 82 2.4 WNW 4 9 2 5 1009.9 1009.9 33.2
21/06:30am 27.6 33.8 25.2 87 1.7 WNW 2 7 1 4 1009.5 1009.5 33.2
21/06:00am 27.7 33.6 25.3 87 1.7 WNW 4 7 2 4 1009.3 1009.3 33.2
21/05:30am 27.6 33.7 25.0 86 1.8 WNW 2 6 1 3 1009.0 1009.0 33.2
21/05:00am 27.9 34.0 25.1 85 2.0 NNW 2 9 1 5 1008.5 1008.5 33.2
21/04:30am 27.8 33.5 25.0 85 2.0 N 4 9 2 5 1007.9 1007.9 33.2
21/04:00am 27.9 33.4 24.7 83 2.2 N 4 9 2 5 1007.8 1007.8 33.2
21/03:30am 27.9 33.2 24.9 84 2.1 N 6 9 3 5 1007.6 1007.6 33.2
21/03:00am 27.8 33.5 25.0 85 2.0 N 4 7 2 4 1007.6 1007.6 33.2
21/02:30am 27.8 33.5 25.0 85 2.0 N 4 7 2 4 1007.7 1007.7 33.2
21/02:00am 27.9 33.7 25.1 85 2.0 NNW 4 7 2 4 1007.9 1007.9 33.2
21/01:30am 28.1 34.0 25.3 85 2.0 NW 4 7 2 4 1008.0 1008.0 33.2
21/01:00am 28.2 33.6 25.2 84 2.1 NW 6 7 3 4 1008.3 1008.3 33.2
21/12:30am 28.3 33.8 25.3 84 2.1 NNW 6 9 3 5 1008.7 1008.7 33.2
21/12:00am 28.9 34.8 25.3 81 2.5 NW 4 7 2 4 1008.8 1008.8 33.2
 
Date/Time
CST
Temp
°C
App
Temp
°C
Dew
Point
°C
Rel
Hum
%
Delta-T
°C
Wind Press
QNH
hPa
Press
MSL
hPa
Rain since
9am
mm
Dir  Spd
km/h
Gust
km/h
Spd
kts
Gust
kts
20/11:30pm 29.0 34.3 25.2 80 2.7 WNW 7 13 4 7 1008.9 1008.9 33.2
20/11:00pm 29.0 34.5 25.6 82 2.4 W 7 13 4 7 1009.0 1009.0 33.2
20/10:30pm 28.8 34.4 25.4 82 2.4 W 6 13 3 7 1009.0 1009.0 33.2
20/10:00pm 28.3 33.7 25.5 85 2.0 W 7 11 4 6 1008.9 1008.9 33.2
20/09:30pm 25.3 31.1 25.1 99 0.1 WNW 4 9 2 5 1008.7 1008.7 33.2
20/09:00pm 24.6 30.6 24.3 98 0.2 CALM 0 0 0 0 1008.4 1008.4 33.2
20/08:30pm 24.5 30.5 24.2 98 0.2 CALM 0 0 0 0 1008.1 1008.1 33.2
20/08:00pm 24.6 30.1 23.4 93 0.8 CALM 0 0 0 0 1008.0 1008.0 33.2
20/07:30pm 25.4 31.0 24.2 93 0.8 N 2 6 1 3 1007.6 1007.6 33.2
20/07:00pm 25.7 30.9 23.6 88 1.4 SSW 2 7 1 4 1007.1 1007.1 33.2
20/06:30pm 25.6 30.2 22.5 83 2.1 WSW 2 7 1 4 1006.6 1006.6 33.2
20/06:00pm 23.2 27.3 23.0 99 0.1 W 6 17 3 9 1007.8 1007.8 33.2
20/05:30pm 22.5 26.0 21.8 96 0.5 NNE 6 13 3 7 1009.7 1009.7 18.6
20/05:08pm 26.9 27.3 19.8 65 4.6 ENE 17 41 9 22 1009.1 1009.1 0.0
20/05:00pm 32.0 36.9 24.6 65 5.2 WSW 7 15 4 8 1008.7 1008.7 0.0
20/04:30pm 31.9 36.8 24.7 65 5.1 W 7 15 4 8 1007.3 1007.3 0.0
20/04:00pm 31.7 36.5 25.1 68 4.7 W 9 17 5 9 1006.8 1006.8 0.0
20/03:30pm 33.3 37.5 25.3 63 5.7 W 13 22 7 12 1007.0 1007.0 0.0
20/03:00pm 33.6 38.3 25.6 63 5.7 W 11 22 6 12 1007.3 1007.3 0.0
20/02:30pm 32.9 37.4 25.2 64 5.5 W 11 20 6 11 1007.6 1007.6 0.0
20/02:00pm 33.7 38.5 25.1 60 6.1 W 9 19 5 10 1008.0 1008.0 0.0
20/01:30pm 33.9 39.0 25.6 62 5.9 W 9 17 5 9 1008.5 1008.5 0.0
20/01:00pm 32.8 37.0 24.8 62 5.6 WSW 11 17 6 9 1008.8 1008.8 0.0
20/12:30pm 33.2 37.9 24.9 61 5.9 W 9 15 5 8 1009.2 1009.2 0.0
20/12:00pm 32.9 37.6 24.9 63 5.7 W 9 17 5 9 1009.5 1009.5 0.0
20/11:30am 32.3 37.0 24.9 65 5.2 W 9 15 5 8 1009.8 1009.8 0.0
20/11:00am 32.8 37.6 25.1 64 5.4 W 9 15 5 8 1010.2 1010.2 0.0
20/10:30am 32.1 37.8 25.9 70 4.4 W 7 11 4 6 1010.4 1010.4 0.0
20/10:00am 31.6 37.3 25.9 72 4.1 WSW 7 9 4 5 1010.4 1010.4 0.0
20/09:30am 31.2 37.2 25.5 71 4.0 WSW 4 6 2 3 1010.4 1010.4 0.0
20/09:00am 30.4 36.8 25.5 75 3.5 WSW 2 6 1 3 1010.3 1010.3 0.0
20/08:30am 30.8 37.8 25.8 74 3.6 CALM 0 4 0 2 1010.1 1010.1 0.0
20/08:00am 29.6 35.1 25.6 79 2.8 E 7 9 4 5 1009.8 1009.8 0.0
20/07:30am 28.8 34.9 26.2 86 1.9 E 6 7 3 4 1009.7 1009.7 0.0
20/07:00am 27.5 34.5 26.4 94 0.8 ESE 2 6 1 3 1009.3 1009.3 0.0
20/06:30am 26.0 32.8 25.5 97 0.4 CALM 0 0 0 0 1008.7 1008.7 0.0
20/06:00am 26.0 32.5 25.1 95 0.6 CALM 0 0 0 0 1008.5 1008.5 0.0
20/05:30am 25.6 31.9 24.7 95 0.6 CALM 0 0 0 0 1008.4 1008.4 0.0
20/05:00am 25.6 31.6 24.2 92 1.0 CALM 0 0 0 0 1008.1 1008.1 0.0
20/04:30am 26.2 32.1 24.1 88 1.4 CALM 0 0 0 0 1007.8 1007.8 0.0
20/04:00am 27.0 33.0 24.3 85 1.9 CALM 0 0 0 0 1007.6 1007.6 0.0
20/03:30am 28.0 34.3 24.8 83 2.2 CALM 0 4 0 2 1007.6 1007.6 0.0
20/03:00am 28.1 33.9 24.5 81 2.5 WNW 2 4 1 2 1007.6 1007.6 0.0
20/02:30am 28.5 34.1 24.9 81 2.5 WNW 4 7 2 4 1007.7 1007.7 0.0
20/02:00am 28.7 34.2 24.7 79 2.8 WNW 4 6 2 3 1008.1 1008.1 0.0
20/01:30am 29.0 34.3 24.3 76 3.3 WNW 4 7 2 4 1008.3 1008.3 0.0
20/01:00am 29.2 34.7 24.7 77 3.1 NW 4 7 2 4 1008.4 1008.4 0.0
20/12:30am 29.4 34.4 24.5 75 3.4 W 6 9 3 5 1008.6 1008.6 0.0
20/12:00am 29.5 35.0 25.3 78 3.0 WNW 6 13 3 7 1008.7 1008.7 0.0
 
Date/Time
CST
Temp
°C
App
Temp
°C
Dew
Point
°C
Rel
Hum
%
Delta-T
°C
Wind Press
QNH
hPa
Press
MSL
hPa
Rain since
9am
mm
Dir  Spd
km/h
Gust
km/h
Spd
kts
Gust
kts
19/11:30pm 29.5 34.5 24.8 76 3.3 WNW 7 13 4 7 1008.9 1008.9 0.0
19/11:00pm 29.6 34.7 24.9 76 3.3 WNW 7 13 4 7 1009.2 1009.2 0.0
19/10:30pm 29.6 34.8 25.1 77 3.2 WNW 7 - 4 - - 1009.1 -
19/10:00pm 29.6 35.2 25.8 80 2.7 W 7 15 4 8 1009.0 1009.0 0.0
19/09:30pm 29.4 34.8 25.4 79 2.8 WNW 7 13 4 7 1009.1 1009.1 0.0
19/09:00pm 29.5 34.6 24.6 75 3.4 W 6 13 3 7 1009.0 1009.0 0.0

Latest Capital City Observations: Canberra | Sydney | Melbourne | Brisbane | Adelaide | Perth | Hobart | Darwin

Other formats

Comma delimited format used in spreadsheet applications
http://www.bom.gov.au/fwo/IDD60901/IDD60901.94116.axf

JavaScript Object Notation format (JSON) in row-major order
http://www.bom.gov.au/fwo/IDD60901/IDD60901.94116.json

Data quality

Most of these data are generated automatically and are frequently updated. Quality checks on data are not normally performed. It is possible for incorrect values to appear. Refer to information at About Latest Weather Observations and please check the disclaimer before using these data.